createdAt,value
2022-10-18T00:01:08.099Z,102808.94
2022-10-18T00:03:35.772Z,102815.34
2022-10-18T00:06:02.590Z,102807.03
2022-10-18T00:08:29.653Z,102800.09
2022-10-18T00:10:57.004Z,102797.16
2022-10-18T00:13:24.385Z,102800.91
2022-10-18T00:15:57.188Z,102803.56
2022-10-18T00:18:24.041Z,102809.19
2022-10-18T00:21:07.678Z,102799.00
2022-10-18T00:23:35.638Z,102798.75
2022-10-18T00:26:06.764Z,102801.44
2022-10-18T00:28:34.678Z,102800.34
2022-10-18T00:31:21.813Z,102807.03
2022-10-18T00:33:52.970Z,102808.09
2022-10-18T00:36:20.446Z,102813.44
2022-10-18T00:38:47.925Z,102806.25
2022-10-18T00:41:18.048Z,102807.03
2022-10-18T00:44:06.257Z,102808.91
2022-10-18T00:46:38.444Z,102811.06
2022-10-18T00:49:11.278Z,102810.50
2022-10-18T00:51:48.329Z,102808.88
2022-10-18T00:54:17.011Z,102807.00
2022-10-18T00:56:44.999Z,102810.75
2022-10-18T00:59:13.513Z,102809.97
2022-10-18T01:01:40.082Z,102813.44
2022-10-18T01:04:06.745Z,102821.22
2022-10-18T01:06:42.099Z,102822.53
2022-10-18T01:09:28.994Z,102816.63
2022-10-18T01:12:09.045Z,102818.50
2022-10-18T01:15:11.479Z,102818.50
2022-10-18T01:17:59.729Z,102835.34
2022-10-18T01:20:54.080Z,102820.63
2022-10-18T01:23:32.964Z,102811.28
2022-10-18T01:26:17.426Z,102813.16
2022-10-18T01:29:14.729Z,102829.75
2022-10-18T01:31:46.921Z,102836.94
2022-10-18T01:34:17.549Z,102839.06
2022-10-18T01:36:48.772Z,102843.91
2022-10-18T01:39:21.951Z,102838.56
2022-10-18T01:41:51.481Z,102840.41
2022-10-18T01:44:26.397Z,102844.16
2022-10-18T01:46:56.202Z,102833.72
2022-10-18T01:49:24.983Z,102838.28
2022-10-18T01:51:51.439Z,102839.06
2022-10-18T01:54:24.068Z,102833.72
2022-10-18T01:57:11.968Z,102825.69
2022-10-18T01:59:51.808Z,102832.13
2022-10-18T02:02:31.234Z,102828.91
2022-10-18T02:05:14.307Z,102836.38
2022-10-18T02:08:12.299Z,102826.97
2022-10-18T02:10:51.222Z,102833.91
2022-10-18T02:13:21.402Z,102834.19
2022-10-18T02:15:52.376Z,102833.91
2022-10-18T02:18:25.566Z,102832.81
2022-10-18T02:20:53.008Z,102839.22
2022-10-18T02:23:22.955Z,102836.28
2022-10-18T02:25:50.307Z,102838.16
2022-10-18T02:28:16.936Z,102832.81
2022-10-18T02:31:04.680Z,102838.66
2022-10-18T02:33:38.474Z,102840.25
2022-10-18T02:36:15.370Z,102840.78
2022-10-18T02:38:44.729Z,102841.31
2022-10-18T02:41:11.308Z,102843.16
2022-10-18T02:43:39.960Z,102835.66
2022-10-18T02:46:06.635Z,102838.34
2022-10-18T02:48:33.316Z,102835.13
2022-10-18T02:50:59.797Z,102836.44
2022-10-18T02:53:26.382Z,102843.91
2022-10-18T02:55:53.252Z,102841.19
2022-10-18T02:58:19.926Z,102847.88
2022-10-18T03:00:49.947Z,102837.44
2022-10-18T03:03:17.197Z,102831.53
2022-10-18T03:05:43.794Z,102825.66
2022-10-18T03:08:10.602Z,102832.56
2022-10-18T03:10:37.345Z,102832.84
2022-10-18T03:13:03.941Z,102834.69
2022-10-18T03:15:30.503Z,102837.63
2022-10-18T03:17:56.994Z,102840.56
2022-10-18T03:20:26.196Z,102841.88
2022-10-18T03:22:52.948Z,102838.38
2022-10-18T03:25:19.602Z,102836.00
2022-10-18T03:27:46.236Z,102839.94
2022-10-18T03:30:13.831Z,102842.91
2022-10-18T03:32:40.582Z,102853.84
2022-10-18T03:35:08.404Z,102844.19
2022-10-18T03:37:35.765Z,102843.91
2022-10-18T03:40:03.167Z,102837.72
2022-10-18T03:42:30.186Z,102849.47
2022-10-18T03:44:57.055Z,102841.97
2022-10-18T03:47:23.848Z,102842.25
2022-10-18T03:49:53.215Z,102845.72
2022-10-18T03:52:22.848Z,102844.34
2022-10-18T03:54:49.410Z,102849.41
2022-10-18T03:57:16.024Z,102848.84
2022-10-18T03:59:42.586Z,102849.09
2022-10-18T04:02:09.237Z,102842.94
2022-10-18T04:04:35.733Z,102839.97
2022-10-18T04:07:02.333Z,102838.88
2022-10-18T04:09:28.866Z,102832.44
2022-10-18T04:11:55.463Z,102840.72
2022-10-18T04:14:22.170Z,102841.44
2022-10-18T04:16:48.836Z,102835.56
2022-10-18T04:19:15.566Z,102834.75
2022-10-18T04:21:42.232Z,102843.53
2022-10-18T04:24:11.544Z,102839.44
2022-10-18T04:26:38.085Z,102842.63
2022-10-18T04:29:04.879Z,102842.88
2022-10-18T04:31:31.837Z,102837.22
2022-10-18T04:33:58.500Z,102838.28
2022-10-18T04:36:25.006Z,102835.06
2022-10-18T04:38:51.555Z,102837.19
2022-10-18T04:41:18.162Z,102836.63
2022-10-18T04:46:12.302Z,102838.66
2022-10-18T04:48:41.779Z,102829.31
2022-10-18T04:51:08.262Z,102835.97
2022-10-18T04:53:34.790Z,102842.84
2022-10-18T04:56:01.367Z,102843.91
2022-10-18T04:58:28.023Z,102847.88
2022-10-18T05:00:54.486Z,102841.19
2022-10-18T05:03:21.083Z,102845.97
2022-10-18T05:06:01.436Z,102843.81
2022-10-18T05:08:29.302Z,102838.94
2022-10-18T05:10:55.855Z,102840.25
2022-10-18T05:13:22.326Z,102844.78
2022-10-18T05:15:49.015Z,102853.84
2022-10-18T05:18:15.830Z,102853.50
2022-10-18T05:20:42.310Z,102859.13
2022-10-18T05:23:11.444Z,102861.47
2022-10-18T05:25:40.885Z,102865.19
2022-10-18T05:28:10.827Z,102863.81
2022-10-18T05:30:47.945Z,102874.19
2022-10-18T05:33:15.186Z,102874.91
2022-10-18T05:35:41.814Z,102879.38
2022-10-18T05:38:08.563Z,102868.41
2022-10-18T05:40:39.679Z,102872.59
2022-10-18T05:43:06.434Z,102880.03
2022-10-18T05:45:33.014Z,102885.81
2022-10-18T05:48:00.302Z,102882.59
2022-10-18T05:50:26.885Z,102888.19
2022-10-18T05:53:06.746Z,102885.25
2022-10-18T05:55:39.155Z,102889.53
2022-10-18T05:58:05.712Z,102889.06
2022-10-18T06:00:32.348Z,102896.03
2022-10-18T06:03:00.371Z,102898.47
2022-10-18T06:05:27.641Z,102908.06
2022-10-18T06:07:54.376Z,102913.91
2022-10-18T06:10:20.921Z,102913.31
2022-10-18T06:12:47.566Z,102908.81
2022-10-18T06:15:14.224Z,102911.22
2022-10-18T06:17:41.361Z,102921.91
2022-10-18T06:20:08.746Z,102933.00
2022-10-18T06:22:35.278Z,102933.25
2022-10-18T06:25:01.890Z,102923.41
2022-10-18T06:27:28.416Z,102933.81
2022-10-18T06:29:55.618Z,102944.16
2022-10-18T06:32:22.355Z,102958.53
2022-10-18T06:34:48.999Z,102941.22
2022-10-18T06:37:15.699Z,102944.03
2022-10-18T06:39:42.313Z,102948.38
2022-10-18T06:42:08.909Z,102952.19
2022-10-18T06:44:35.741Z,102957.34
2022-10-18T06:47:02.388Z,102960.09
2022-10-18T06:49:29.362Z,102972.69
2022-10-18T06:51:56.052Z,102965.06
2022-10-18T06:54:23.746Z,102968.13
2022-10-18T06:56:50.699Z,102975.94
2022-10-18T06:59:18.409Z,102973.34
2022-10-18T07:01:45.026Z,102973.19
2022-10-18T07:04:11.985Z,102981.00
2022-10-18T07:06:46.381Z,102982.91
2022-10-18T07:09:12.959Z,102985.09
2022-10-18T07:11:41.627Z,102989.22
2022-10-18T07:14:09.558Z,102992.72
2022-10-18T07:16:40.148Z,102987.28
2022-10-18T07:19:06.828Z,102999.94
2022-10-18T07:21:35.099Z,102997.88
2022-10-18T07:24:04.646Z,102996.06
2022-10-18T07:26:33.392Z,102989.44
2022-10-18T07:29:08.702Z,102988.47
2022-10-18T07:31:35.727Z,103003.78
2022-10-18T07:34:04.963Z,103011.03
2022-10-18T07:36:33.953Z,103012.38
2022-10-18T07:39:00.970Z,103018.84
2022-10-18T07:41:29.341Z,103012.50
2022-10-18T07:43:56.154Z,103019.19
2022-10-18T07:46:23.305Z,103017.63
2022-10-18T07:48:51.920Z,103018.19
2022-10-18T07:51:20.315Z,103013.94
2022-10-18T07:53:47.228Z,103022.28
2022-10-18T07:56:16.619Z,103032.72
2022-10-18T07:58:44.775Z,103035.13
2022-10-18T08:01:12.981Z,103037.06
2022-10-18T08:03:44.958Z,103039.44
2022-10-18T08:06:14.749Z,103037.84
2022-10-18T08:08:44.843Z,103038.66
2022-10-18T08:11:19.646Z,103044.00
2022-10-18T08:13:47.191Z,103049.66
2022-10-18T08:16:18.458Z,103043.78
2022-10-18T08:18:45.596Z,103046.22
2022-10-18T08:21:13.699Z,103044.09
2022-10-18T08:23:41.100Z,103044.66
2022-10-18T08:26:12.387Z,103047.88
2022-10-18T08:28:46.022Z,103057.00
2022-10-18T08:31:20.524Z,103061.03
2022-10-18T08:33:48.786Z,103058.66
2022-10-18T08:36:18.555Z,103051.19
2022-10-18T08:38:45.215Z,103052.28
2022-10-18T08:41:23.075Z,103050.72
2022-10-18T08:43:52.663Z,103049.38
2022-10-18T08:46:19.441Z,103047.00
2022-10-18T08:48:50.199Z,103049.41
2022-10-18T08:51:30.168Z,103049.47
2022-10-18T08:54:06.825Z,103051.59
2022-10-18T08:56:33.977Z,103051.34
2022-10-18T08:59:05.852Z,103052.47
2022-10-18T09:01:58.285Z,103051.44
2022-10-18T09:04:44.742Z,103051.97
2022-10-18T09:07:56.530Z,103052.53
2022-10-18T09:10:44.248Z,103056.88
2022-10-18T09:13:26.965Z,103065.78
2022-10-18T09:16:00.082Z,103059.63
2022-10-18T09:18:48.399Z,103061.81
2022-10-18T09:21:20.998Z,103064.56
2022-10-18T09:23:52.268Z,103065.94
2022-10-18T09:26:22.777Z,103073.47
2022-10-18T09:29:27.213Z,103084.25
2022-10-18T09:32:08.326Z,103081.06
2022-10-18T09:34:50.820Z,103071.44
2022-10-18T09:37:20.916Z,103090.22
2022-10-18T09:39:50.480Z,103086.22
2022-10-18T09:42:41.840Z,103079.53
2022-10-18T09:45:29.846Z,103088.16
2022-10-18T09:48:27.868Z,103077.72
2022-10-18T09:51:03.422Z,103084.44
2022-10-18T09:54:11.774Z,103079.09
2022-10-18T09:56:50.107Z,103086.06
2022-10-18T09:59:20.674Z,103086.06
2022-10-18T10:01:47.273Z,103086.03
2022-10-18T10:04:15.530Z,103086.84
2022-10-18T10:06:50.170Z,103074.47
2022-10-18T10:09:21.152Z,103088.16
2022-10-18T10:11:50.027Z,103090.81
2022-10-18T10:14:23.690Z,103092.38
2022-10-18T10:16:54.052Z,103095.88
2022-10-18T10:19:39.880Z,103101.78
2022-10-18T10:22:10.535Z,103100.38
2022-10-18T10:24:53.303Z,103092.84
2022-10-18T10:27:21.803Z,103103.56
2022-10-18T10:29:51.557Z,103104.31
2022-10-18T10:32:21.093Z,103106.16
2022-10-18T10:34:47.862Z,103099.94
2022-10-18T10:37:26.436Z,103101.81
2022-10-18T10:40:17.844Z,103111.75
2022-10-18T10:43:08.987Z,103099.38
2022-10-18T10:46:09.922Z,103105.56
2022-10-18T10:48:47.275Z,103109.53
2022-10-18T10:51:16.125Z,103116.81
2022-10-18T10:53:57.598Z,103113.31
2022-10-18T10:56:28.716Z,103117.31
2022-10-18T10:59:01.960Z,103118.38
2022-10-18T11:01:32.663Z,103116.47
2022-10-18T11:04:03.462Z,103114.00
2022-10-18T11:06:43.027Z,103119.88
2022-10-18T11:09:24.490Z,103114.78
2022-10-18T11:12:03.825Z,103123.69
2022-10-18T11:14:36.888Z,103121.53
2022-10-18T11:17:07.750Z,103124.75
2022-10-18T11:19:55.793Z,103117.69
2022-10-18T11:22:27.743Z,103116.09
2022-10-18T11:24:54.544Z,103121.16
2022-10-18T11:27:38.086Z,103116.44
2022-10-18T11:30:37.789Z,103105.16
2022-10-18T11:33:11.938Z,103118.13
2022-10-18T11:36:04.608Z,103107.28
2022-10-18T11:38:59.222Z,103107.75
2022-10-18T11:41:34.835Z,103110.66
2022-10-18T11:44:17.067Z,103109.84
2022-10-18T11:47:07.317Z,103111.19
2022-10-18T11:49:42.659Z,103113.56
2022-10-18T11:52:12.296Z,103118.34
2022-10-18T11:54:56.383Z,103108.41
2022-10-18T11:57:34.704Z,103115.31
2022-10-18T12:00:14.908Z,103121.53
2022-10-18T12:03:15.763Z,103108.84
2022-10-18T12:05:51.469Z,103103.31
2022-10-18T12:08:47.492Z,103106.94
2022-10-18T12:11:22.400Z,103106.97
2022-10-18T12:13:55.372Z,103101.53
2022-10-18T12:16:45.457Z,103110.31
2022-10-18T12:19:23.594Z,103102.34
2022-10-18T12:21:54.124Z,103102.56
2022-10-18T12:24:25.331Z,103102.78
2022-10-18T12:26:57.416Z,103099.81
2022-10-18T12:29:40.240Z,103095.81
2022-10-18T12:32:13.606Z,103097.88
2022-10-18T12:34:50.853Z,103090.94
2022-10-18T12:37:38.327Z,103096.84
2022-10-18T12:40:21.449Z,103103.72
2022-10-18T12:42:51.276Z,103098.50
2022-10-18T12:45:35.487Z,103097.13
2022-10-18T12:48:06.952Z,103090.34
2022-10-18T12:50:40.692Z,103089.44
2022-10-18T12:53:12.909Z,103092.13
2022-10-18T12:55:46.128Z,103090.59
2022-10-18T12:58:35.689Z,103084.13
2022-10-18T13:01:06.148Z,103094.91
2022-10-18T13:03:51.196Z,103086.81
2022-10-18T13:06:22.717Z,103079.56
2022-10-18T13:09:16.017Z,103081.47
2022-10-18T13:11:43.691Z,103074.00
2022-10-18T13:15:05.684Z,103065.59
2022-10-18T13:18:22.655Z,103059.00
2022-10-18T13:21:10.158Z,103058.75
2022-10-18T13:23:50.951Z,103062.31
2022-10-18T13:26:38.499Z,103062.84
2022-10-18T13:29:14.265Z,103061.22
2022-10-18T13:31:54.842Z,103056.16
2022-10-18T13:34:49.607Z,103061.03
2022-10-18T13:37:16.259Z,103072.88
2022-10-18T13:39:43.065Z,103069.91
2022-10-18T13:42:43.387Z,103074.66
2022-10-18T13:45:35.998Z,103074.06
2022-10-18T13:48:30.028Z,103075.97
2022-10-18T13:51:50.247Z,103071.97
2022-10-18T13:55:09.210Z,103071.66
2022-10-18T13:57:53.597Z,103069.19
2022-10-18T14:00:58.396Z,103085.34
2022-10-18T14:04:13.034Z,103082.44
2022-10-18T14:06:49.101Z,103073.03
2022-10-18T14:12:49.102Z,103083.81
2022-10-18T14:15:21.049Z,103086.00
2022-10-18T14:23:57.977Z,103096.88
2022-10-18T14:26:24.744Z,103093.63
2022-10-18T14:29:12.543Z,103091.97
2022-10-18T14:31:39.332Z,103095.28
2022-10-18T14:34:06.514Z,103094.59
2022-10-18T14:36:43.988Z,103093.59
2022-10-18T14:39:22.860Z,103085.56
2022-10-18T14:41:53.518Z,103100.41
2022-10-18T14:44:26.619Z,103096.38
2022-10-18T14:47:27.190Z,103096.38
2022-10-18T14:49:54.712Z,103102.69
2022-10-18T14:52:29.456Z,103100.09
2022-10-18T14:55:01.414Z,103094.16
2022-10-18T14:57:33.334Z,103096.34
2022-10-18T15:00:03.402Z,103097.47
2022-10-18T15:02:35.930Z,103110.41
2022-10-18T15:05:19.765Z,103099.44
2022-10-18T15:07:47.410Z,103112.09
2022-10-18T15:10:17.428Z,103109.41
2022-10-18T15:13:08.102Z,103105.94
2022-10-18T15:15:34.871Z,103102.72
2022-10-18T15:18:05.221Z,103105.44
2022-10-18T15:20:39.640Z,103100.59
2022-10-18T15:23:42.774Z,103109.78
2022-10-18T15:26:13.271Z,103104.41
2022-10-18T15:28:51.213Z,103100.41
2022-10-18T15:31:33.285Z,103105.25
2022-10-18T15:34:23.438Z,103098.56
2022-10-18T15:36:53.993Z,103098.03
2022-10-18T15:39:24.715Z,103104.78
2022-10-18T15:42:00.430Z,103104.03
2022-10-18T15:44:42.212Z,103108.88
2022-10-18T15:47:35.324Z,103106.25
2022-10-18T15:50:02.626Z,103112.97
2022-10-18T15:52:39.502Z,103117.84
2022-10-18T15:55:52.618Z,103110.56
2022-10-18T15:58:23.412Z,103126.44
2022-10-18T16:00:52.618Z,103118.41
2022-10-18T16:03:22.156Z,103114.66
2022-10-18T16:05:53.436Z,103119.22
2022-10-18T16:08:25.930Z,103119.78
2022-10-18T16:10:52.791Z,103113.09
2022-10-18T16:13:19.760Z,103113.88
2022-10-18T16:15:47.002Z,103119.56
2022-10-18T16:18:16.338Z,103112.56
2022-10-18T16:20:43.330Z,103123.00
2022-10-18T16:23:17.322Z,103125.44
2022-10-18T16:25:44.113Z,103117.38
2022-10-18T16:28:19.140Z,103123.84
2022-10-18T16:30:53.182Z,103135.41
2022-10-18T16:33:21.601Z,103131.66
2022-10-18T16:35:48.957Z,103137.28
2022-10-18T16:38:34.293Z,103129.53
2022-10-18T16:41:06.797Z,103135.69
2022-10-18T16:43:37.138Z,103131.13
2022-10-18T16:46:05.011Z,103131.94
2022-10-18T16:48:32.734Z,103133.56
2022-10-18T16:51:01.281Z,103129.81
2022-10-18T16:53:28.189Z,103139.47
2022-10-18T16:56:00.053Z,103144.31
2022-10-18T16:58:28.791Z,103144.81
2022-10-18T17:00:55.799Z,103153.44
2022-10-18T17:03:22.526Z,103151.00
2022-10-18T17:05:53.190Z,103156.34
2022-10-18T17:08:22.763Z,103164.94
2022-10-18T17:10:54.021Z,103174.88
2022-10-18T17:13:21.939Z,103169.22
2022-10-18T17:15:51.081Z,103172.44
2022-10-18T17:18:21.729Z,103176.19
2022-10-18T17:20:50.470Z,103156.84
2022-10-18T17:23:18.811Z,103169.47
2022-10-18T17:25:57.852Z,103174.78
2022-10-18T17:28:33.222Z,103167.00
2022-10-18T17:31:02.265Z,103184.41
2022-10-18T17:33:32.847Z,103193.50
2022-10-18T17:35:59.443Z,103185.44
2022-10-18T17:38:28.129Z,103183.84
2022-10-18T17:40:54.884Z,103187.56
2022-10-18T17:43:21.482Z,103180.88
2022-10-18T17:45:55.296Z,103179.78
2022-10-18T17:48:22.723Z,103184.09
2022-10-18T17:50:49.470Z,103178.19
2022-10-18T17:53:18.415Z,103176.56
2022-10-18T17:55:45.166Z,103183.00
2022-10-18T17:58:12.537Z,103188.06
2022-10-18T18:00:41.136Z,103190.69
2022-10-18T18:03:08.066Z,103190.69
2022-10-18T18:05:34.798Z,103195.47
2022-10-18T18:08:04.073Z,103201.06
2022-10-18T18:10:33.935Z,103208.78
2022-10-18T18:13:01.521Z,103203.97
2022-10-18T18:15:28.265Z,103209.00
2022-10-18T18:17:57.411Z,103209.25
2022-10-18T18:20:26.943Z,103203.88
2022-10-18T18:22:55.589Z,103208.16
2022-10-18T18:25:22.715Z,103212.94
2022-10-18T18:27:51.954Z,103209.19
2022-10-18T18:30:18.877Z,103214.81
2022-10-18T18:32:45.788Z,103209.72
2022-10-18T18:35:12.652Z,103210.22
2022-10-18T18:37:40.664Z,103207.00
2022-10-18T18:40:10.515Z,103209.13
2022-10-18T18:42:37.114Z,103212.06
2022-10-18T18:45:05.262Z,103215.50
2022-10-18T18:47:35.626Z,103221.63
2022-10-18T18:50:07.913Z,103214.59
2022-10-18T18:52:35.016Z,103226.81
2022-10-18T18:55:01.897Z,103229.41
2022-10-18T18:57:28.557Z,103223.97
2022-10-18T18:59:55.131Z,103229.75
2022-10-18T19:02:22.015Z,103230.56
2022-10-18T19:04:53.769Z,103233.56
2022-10-18T19:07:20.609Z,103233.47
2022-10-18T19:09:50.739Z,103236.69
2022-10-18T19:12:22.419Z,103229.91
2022-10-18T19:14:49.328Z,103231.66
2022-10-18T19:17:16.245Z,103224.16
2022-10-18T19:19:45.892Z,103230.53
2022-10-18T19:22:15.221Z,103231.31
2022-10-18T19:24:44.311Z,103239.53
2022-10-18T19:27:16.656Z,103234.38
2022-10-18T19:29:46.560Z,103235.66
2022-10-18T19:32:15.066Z,103238.03
2022-10-18T19:34:41.771Z,103234.47
2022-10-18T19:37:13.194Z,103233.03
2022-10-18T19:39:39.866Z,103234.03
2022-10-18T19:42:09.995Z,103245.78
2022-10-18T19:44:37.418Z,103231.28
2022-10-18T19:47:05.906Z,103227.75
2022-10-18T19:49:35.305Z,103235.19
2022-10-18T19:52:02.149Z,103232.19
2022-10-18T19:54:29.062Z,103221.19
2022-10-18T19:56:56.008Z,103223.22
2022-10-18T19:59:24.874Z,103227.97
2022-10-18T20:01:51.796Z,103228.97
2022-10-18T20:04:18.372Z,103219.25
2022-10-18T20:06:44.964Z,103226.63
2022-10-18T20:09:16.088Z,103233.53
2022-10-18T20:11:46.226Z,103229.31
2022-10-18T20:14:12.907Z,103229.97
2022-10-18T20:16:42.656Z,103241.19
2022-10-18T20:19:10.639Z,103234.88
2022-10-18T20:21:37.283Z,103245.59
2022-10-18T20:24:12.430Z,103247.03
2022-10-18T20:26:40.693Z,103244.50
2022-10-18T20:29:08.284Z,103246.50
2022-10-18T20:31:38.658Z,103242.84
2022-10-18T20:34:11.751Z,103243.66
2022-10-18T20:36:38.948Z,103243.78
2022-10-18T20:39:07.061Z,103257.16
2022-10-18T20:41:40.949Z,103238.28
2022-10-18T20:44:14.952Z,103249.03
2022-10-18T20:46:43.181Z,103240.38
2022-10-18T20:49:13.604Z,103234.94
2022-10-18T20:51:40.703Z,103238.19
2022-10-18T20:54:09.634Z,103241.19
2022-10-18T20:56:39.478Z,103236.00
2022-10-18T20:59:10.093Z,103235.28
2022-10-18T21:01:38.702Z,103232.97
2022-10-18T21:04:07.810Z,103220.13
2022-10-18T21:06:37.129Z,103225.31
2022-10-18T21:09:07.369Z,103220.25
2022-10-18T21:11:42.477Z,103235.03
2022-10-18T21:14:16.280Z,103225.31
2022-10-18T21:16:43.839Z,103225.75
2022-10-18T21:19:16.377Z,103222.19
2022-10-18T21:21:45.019Z,103219.38
2022-10-18T21:24:13.606Z,103219.00
2022-10-18T21:26:40.996Z,103219.72
2022-10-18T21:29:08.388Z,103217.50
2022-10-18T21:31:39.124Z,103223.75
2022-10-18T21:34:13.208Z,103224.66
2022-10-18T21:36:41.366Z,103224.16
2022-10-18T21:39:12.193Z,103230.38
2022-10-18T21:41:42.723Z,103226.16
2022-10-18T21:44:11.281Z,103233.44
2022-10-18T21:46:39.474Z,103229.00
2022-10-18T21:49:07.294Z,103227.44
2022-10-18T21:51:34.141Z,103232.59
2022-10-18T21:54:00.804Z,103234.94
2022-10-18T21:56:32.570Z,103233.50
2022-10-18T21:59:02.753Z,103240.28
2022-10-18T22:01:32.586Z,103234.63
2022-10-18T22:04:00.763Z,103233.47
2022-10-18T22:06:31.521Z,103225.91
2022-10-18T22:09:05.602Z,103224.72
2022-10-18T22:11:35.359Z,103222.53
2022-10-18T22:14:02.068Z,103214.34
2022-10-18T22:16:29.279Z,103216.84
2022-10-18T22:19:01.418Z,103210.13
2022-10-18T22:21:28.458Z,103216.47
2022-10-18T22:23:59.537Z,103214.25
2022-10-18T22:26:33.597Z,103220.84
2022-10-18T22:29:03.454Z,103212.28
2022-10-18T22:31:33.098Z,103209.84
2022-10-18T22:34:06.285Z,103213.97
2022-10-18T22:36:33.741Z,103214.41
2022-10-18T22:39:00.752Z,103206.28
2022-10-18T22:41:27.489Z,103213.66
2022-10-18T22:43:56.428Z,103207.75
2022-10-18T22:46:26.111Z,103207.16
2022-10-18T22:48:53.051Z,103211.28
2022-10-18T22:51:19.730Z,103211.72
2022-10-18T22:53:46.683Z,103205.38
2022-10-18T22:56:16.303Z,103209.28
2022-10-18T22:58:43.266Z,103203.38
2022-10-18T23:01:15.979Z,103207.06
2022-10-18T23:03:42.856Z,103205.44
2022-10-18T23:06:31.188Z,103201.41
2022-10-18T23:09:00.485Z,103205.31
2022-10-18T23:11:28.682Z,103205.13
2022-10-18T23:13:55.321Z,103203.94
2022-10-18T23:16:22.195Z,103206.66
2022-10-18T23:18:51.238Z,103200.38
2022-10-18T23:21:18.835Z,103194.69
2022-10-18T23:23:45.602Z,103192.69
2022-10-18T23:26:18.165Z,103193.13
2022-10-18T23:28:46.918Z,103205.00
2022-10-18T23:31:18.166Z,103205.41
2022-10-18T23:33:46.572Z,103198.31
2022-10-18T23:36:13.689Z,103206.47
2022-10-18T23:38:41.165Z,103201.81
2022-10-18T23:41:09.896Z,103214.34
2022-10-18T23:43:36.623Z,103204.13
2022-10-18T23:46:03.678Z,103218.84
2022-10-18T23:48:30.451Z,103218.25
2022-10-18T23:50:57.336Z,103221.34
2022-10-18T23:53:26.460Z,103213.81
2022-10-18T23:56:00.825Z,103218.31
2022-10-18T23:58:30.124Z,103216.25
